Time;durP1;ratioP1;P1;durP2;ratioP2;P2;SDS_P1;SDS_P2;PMS_P1;PMS_P2;Temp;Humidity;BMP_temperature;BMP_pressure;BME280_temperature;BME280_humidity;BME280_pressure;Samples;Min_cycle;Max_cycle;Signal;HPM_P1;HPM_P2
2022/01/28 00:02:34;;;;;;;2.13;2.00;;;4.40;99.90;;;;;;5095938;28;20248;-81
2022/01/28 00:05:13;;;;;;;1.77;1.58;;;4.40;99.90;;;;;;5096162;28;20224;-81
2022/01/28 00:07:41;;;;;;;1.83;1.73;;;4.40;99.90;;;;;;5095910;28;20208;-81
2022/01/28 00:10:09;;;;;;;1.35;1.30;;;4.50;99.90;;;;;;5095074;28;20221;-81
2022/01/28 00:13:00;;;;;;;1.88;1.40;;;4.50;99.90;;;;;;5096064;28;20208;-81
2022/01/28 00:15:31;;;;;;;1.50;1.40;;;4.50;99.90;;;;;;5095393;28;20284;-81
2022/01/28 00:40:12;;;;;;;1.60;1.50;;;4.70;99.90;;;;;;5093838;28;20196;-81
2022/01/28 00:42:40;;;;;;;4.63;1.77;;;4.70;99.90;;;;;;5095278;28;20208;-81
2022/01/28 00:45:09;;;;;;;1.90;1.77;;;4.70;99.90;;;;;;5094941;28;20304;-81
2022/01/28 00:47:37;;;;;;;1.70;1.60;;;4.70;99.90;;;;;;5094903;28;20292;-81
2022/01/28 00:50:06;;;;;;;1.60;1.50;;;4.70;99.90;;;;;;5094935;28;20212;-81
2022/01/28 00:52:36;;;;;;;1.67;1.52;;;4.70;99.90;;;;;;5095004;28;20211;-81
2022/01/28 00:55:05;;;;;;;0.93;0.93;;;4.70;99.90;;;;;;5094963;28;20232;-81
2022/01/28 00:57:33;;;;;;;4.72;2.03;;;4.60;99.90;;;;;;5094441;28;20222;-81
2022/01/28 01:00:02;;;;;;;1.38;1.30;;;4.60;99.90;;;;;;5093862;28;20287;-81
2022/01/28 01:02:30;;;;;;;1.48;1.38;;;4.60;99.90;;;;;;5094305;28;20212;-81
2022/01/28 01:04:58;;;;;;;1.60;1.50;;;4.60;99.90;;;;;;5094729;28;20236;-81
2022/01/28 01:07:27;;;;;;;1.60;1.50;;;4.50;99.90;;;;;;5094313;28;20272;-81
2022/01/28 01:09:56;;;;;;;1.27;1.17;;;4.50;99.90;;;;;;5093867;28;20208;-81
2022/01/28 01:12:26;;;;;;;1.67;1.58;;;4.40;99.90;;;;;;5093995;28;20201;-81
2022/01/28 01:14:55;;;;;;;1.58;1.48;;;4.40;99.90;;;;;;5094021;28;20235;-81
2022/01/28 01:17:32;;;;;;;1.10;1.10;;;4.40;99.90;;;;;;5094690;28;20331;-81
2022/01/28 01:20:14;;;;;;;2.35;1.73;;;4.30;99.90;;;;;;5093794;28;20215;-80
2022/01/28 01:22:50;;;;;;;1.08;1.05;;;4.30;99.90;;;;;;5094182;28;20219;-81
2022/01/28 01:25:26;;;;;;;1.17;1.10;;;4.40;99.90;;;;;;5093777;28;20222;-81
2022/01/28 01:27:57;;;;;;;1.20;1.20;;;4.40;99.90;;;;;;5093950;28;20218;-81
2022/01/28 01:30:29;;;;;;;1.23;1.20;;;4.40;99.90;;;;;;5093614;28;20202;-81
2022/01/28 01:32:58;;;;;;;1.00;1.00;;;4.40;99.90;;;;;;5092131;28;20204;-81
2022/01/28 01:35:26;;;;;;;1.40;1.30;;;4.50;99.90;;;;;;5093967;28;20230;-81
2022/01/28 01:37:55;;;;;;;1.67;1.58;;;4.50;99.90;;;;;;5093794;28;20284;-81
2022/01/28 01:40:30;;;;;;;2.08;1.88;;;4.50;99.90;;;;;;5092777;28;20303;-81
2022/01/28 01:43:09;;;;;;;1.10;1.10;;;4.50;99.90;;;;;;5093372;28;20204;-81
2022/01/28 01:45:55;;;;;;;1.35;1.25;;;4.60;99.90;;;;;;5093595;28;20223;-81
2022/01/28 01:53:59;;;;;;;1.48;1.38;;;4.50;99.90;;;;;;5092920;28;20208;-81
2022/01/28 01:56:30;;;;;;;1.70;1.60;;;4.40;99.90;;;;;;5093148;28;20308;-82
2022/01/28 01:58:59;;;;;;;1.50;1.40;;;4.30;99.90;;;;;;5092748;28;20216;-81
2022/01/28 02:01:27;;;;;;;4.32;1.70;;;4.20;99.90;;;;;;5093422;28;20232;-81
2022/01/28 02:03:56;;;;;;;1.95;1.85;;;4.20;99.90;;;;;;5093216;28;20201;-81
2022/01/28 02:06:25;;;;;;;1.35;1.30;;;4.20;99.90;;;;;;5092972;28;20227;-81
2022/01/28 02:08:53;;;;;;;2.17;2.08;;;4.10;99.90;;;;;;5092703;28;20215;-81
2022/01/28 02:11:22;;;;;;;2.00;1.80;;;4.10;99.90;;;;;;5093463;28;20300;-82
2022/01/28 02:13:52;;;;;;;1.85;1.75;;;4.10;99.90;;;;;;5093214;28;20214;-82
2022/01/28 02:16:21;;;;;;;2.58;1.60;;;4.10;99.90;;;;;;5093416;28;20232;-81
2022/01/28 02:18:50;;;;;;;2.30;1.40;;;4.10;99.90;;;;;;5092864;28;20265;-82
2022/01/28 02:21:19;;;;;;;1.42;1.35;;;4.10;99.90;;;;;;5092971;28;20201;-81
2022/01/28 02:23:53;;;;;;;1.27;1.23;;;4.10;99.90;;;;;;5092770;28;20269;-82
2022/01/28 02:26:21;;;;;;;1.52;1.42;;;4.10;99.90;;;;;;5093187;28;20247;-82
2022/01/28 02:28:53;;;;;;;1.55;1.45;;;4.10;99.90;;;;;;5092088;28;20218;-82
2022/01/28 02:31:24;;;;;;;1.25;1.25;;;4.10;99.90;;;;;;5092772;28;20303;-82
2022/01/28 02:33:56;;;;;;;1.67;1.58;;;4.10;99.90;;;;;;5093266;28;20205;-81
2022/01/28 02:36:26;;;;;;;1.33;1.27;;;4.10;99.90;;;;;;5093159;28;20255;-82
2022/01/28 02:38:57;;;;;;;9.10;1.63;;;4.10;99.90;;;;;;5092292;28;20212;-82
2022/01/28 02:41:30;;;;;;;1.75;1.55;;;4.20;99.90;;;;;;5092395;28;20205;-81
2022/01/28 02:44:09;;;;;;;1.58;1.45;;;4.10;99.90;;;;;;5092560;28;20215;-82
2022/01/28 02:46:41;;;;;;;1.58;1.48;;;4.10;99.90;;;;;;5092690;28;20247;-81
2022/01/28 02:49:11;;;;;;;1.48;1.30;;;4.20;99.90;;;;;;5092645;28;20212;-82
2022/01/28 02:51:41;;;;;;;1.45;1.35;;;4.20;99.90;;;;;;5092807;28;20230;-82
2022/01/28 02:54:18;;;;;;;0.93;0.93;;;4.20;99.90;;;;;;5092763;28;20218;-81
2022/01/28 02:56:55;;;;;;;1.50;1.40;;;4.20;99.90;;;;;;5092516;28;20307;-81
2022/01/28 02:59:23;;;;;;;1.45;1.35;;;4.20;99.90;;;;;;5092227;28;20211;-82
2022/01/28 03:01:51;;;;;;;1.35;1.33;;;4.20;99.90;;;;;;5092530;28;20200;-82
2022/01/28 03:04:46;;;;;;;1.73;1.63;;;4.20;99.90;;;;;;5093283;28;20216;-81
2022/01/28 03:07:12;;;;;;;1.40;1.30;;;4.20;99.90;;;;;;5092446;28;20200;-81
2022/01/28 03:09:51;;;;;;;1.67;1.58;;;4.20;99.90;;;;;;5091961;28;20204;-82
2022/01/28 03:12:30;;;;;;;1.45;1.38;;;4.20;99.90;;;;;;5092524;28;20284;-82
2022/01/28 03:15:03;;;;;;;1.08;1.08;;;4.20;99.90;;;;;;5092853;28;20258;-81
2022/01/28 03:17:55;;;;;;;1.30;1.30;;;4.20;99.90;;;;;;5093154;28;20208;-81
2022/01/28 03:20:37;;;;;;;1.60;1.50;;;4.20;99.90;;;;;;5092235;28;20208;-81
2022/01/28 03:23:07;;;;;;;1.30;1.23;;;4.20;99.90;;;;;;5092447;28;20210;-82
2022/01/28 03:25:37;;;;;;;2.00;1.90;;;4.20;99.90;;;;;;5091895;28;20288;-81
2022/01/28 03:28:05;;;;;;;1.85;1.75;;;4.20;99.90;;;;;;5092308;28;20240;-81
2022/01/28 03:30:34;;;;;;;1.85;1.75;;;4.10;99.90;;;;;;5091904;28;20204;-81
2022/01/28 03:33:02;;;;;;;2.03;1.92;;;4.10;99.90;;;;;;5091252;28;20224;-81
2022/01/28 03:35:33;;;;;;;1.10;1.10;;;4.00;99.90;;;;;;5094673;28;20254;-82
2022/01/28 03:38:02;;;;;;;1.77;1.67;;;4.00;99.90;;;;;;5095979;28;20201;-82
2022/01/28 03:40:36;;;;;;;2.72;1.80;;;4.00;99.90;;;;;;5095726;28;20212;-81
2022/01/28 03:43:05;;;;;;;1.45;1.35;;;4.00;99.90;;;;;;5096606;28;20196;-82
2022/01/28 03:45:33;;;;;;;1.30;1.30;;;4.00;99.90;;;;;;5096544;28;20227;-82
2022/01/28 03:48:02;;;;;;;3.53;2.03;;;4.10;99.90;;;;;;5096554;28;20292;-81
2022/01/28 03:50:32;;;;;;;1.63;1.52;;;4.10;99.90;;;;;;5095879;28;20208;-81
2022/01/28 03:53:01;;;;;;;1.80;1.70;;;4.20;99.90;;;;;;5095974;28;20224;-81
2022/01/28 03:55:30;;;;;;;1.70;1.60;;;4.20;99.90;;;;;;5095968;28;20303;-81
2022/01/28 03:58:00;;;;;;;2.22;1.85;;;4.20;99.90;;;;;;5095627;28;20300;-81
2022/01/28 04:00:30;;;;;;;2.05;1.85;;;4.30;99.90;;;;;;5095152;28;20200;-81
2022/01/28 04:03:07;;;;;;;1.55;1.45;;;4.30;99.90;;;;;;5095896;28;20206;-81
2022/01/28 04:11:25;;;;;;;1.85;1.75;;;4.30;99.90;;;;;;5095764;28;20254;-81
2022/01/28 04:11:30;;;;;;;1.80;1.70;;;4.30;99.90;;;;;;5095830;28;20231;-81
2022/01/28 04:14:09;;;;;;;1.58;1.48;;;4.30;99.90;;;;;;5095248;28;20230;-81
2022/01/28 04:19:20;;;;;;;1.48;1.38;;;4.40;99.90;;;;;;5094365;28;20204;-81
2022/01/28 04:21:49;;;;;;;1.50;1.40;;;4.40;99.90;;;;;;5095613;28;20306;-81
2022/01/28 04:24:17;;;;;;;1.75;1.65;;;4.40;99.90;;;;;;5095507;28;20209;-81
2022/01/28 04:26:45;;;;;;;2.55;2.35;;;4.40;99.90;;;;;;5095147;28;20273;-81
2022/01/28 04:29:15;;;;;;;2.10;1.80;;;4.40;99.90;;;;;;5094404;28;20208;-80
2022/01/28 04:31:46;;;;;;;2.35;2.15;;;4.40;99.90;;;;;;5094517;28;20242;-80
2022/01/28 04:34:15;;;;;;;1.50;1.40;;;4.30;99.90;;;;;;5095401;28;20272;-81
2022/01/28 04:36:53;;;;;;;1.73;1.63;;;4.30;99.90;;;;;;5095398;28;20255;-81
2022/01/28 04:39:28;;;;;;;1.38;1.38;;;4.40;99.90;;;;;;5094450;28;20211;-81
2022/01/28 04:42:05;;;;;;;2.03;1.90;;;4.40;99.90;;;;;;5094799;28;20219;-81
2022/01/28 04:44:44;;;;;;;1.70;1.60;;;4.40;99.90;;;;;;5095266;28;20211;-81
2022/01/28 04:47:19;;;;;;;1.58;1.48;;;4.50;99.90;;;;;;5094479;28;20218;-81
2022/01/28 04:49:57;;;;;;;2.45;1.80;;;4.50;99.90;;;;;;5094423;28;20199;-80
2022/01/28 04:52:47;;;;;;;1.35;1.25;;;4.60;99.90;;;;;;5095221;28;20224;-81
2022/01/28 04:55:29;;;;;;;1.60;1.50;;;4.60;99.90;;;;;;5094919;28;20231;-81
2022/01/28 04:58:10;;;;;;;1.45;1.33;;;4.70;99.90;;;;;;5094970;28;20290;-81
2022/01/28 05:00:51;;;;;;;2.15;1.95;;;4.70;99.90;;;;;;5094367;28;20214;-81
2022/01/28 05:03:35;;;;;;;2.90;2.03;;;4.70;99.90;;;;;;5094944;28;20200;-81
2022/01/28 05:12:20;;;;;;;2.15;1.98;;;4.70;99.90;;;;;;5093197;28;20214;-81
2022/01/28 05:23:29;;;;;;;2.05;1.85;;;4.50;99.90;;;;;;5094307;28;20279;-81
2022/01/28 05:26:24;;;;;;;2.42;2.22;;;4.50;99.90;;;;;;5094166;28;20304;-80
2022/01/28 05:28:53;;;;;;;2.67;1.67;;;4.40;99.90;;;;;;5093683;28;20209;-81
2022/01/28 05:31:22;;;;;;;2.50;2.30;;;4.40;99.90;;;;;;5094243;28;20215;-81
2022/01/28 05:33:52;;;;;;;2.60;2.40;;;4.40;99.90;;;;;;5094091;28;20220;-81
2022/01/28 05:36:20;;;;;;;2.15;2.05;;;4.50;99.90;;;;;;5094068;28;20288;-80
2022/01/28 05:38:49;;;;;;;2.30;2.10;;;4.40;99.90;;;;;;5093040;28;20231;-80
2022/01/28 05:41:17;;;;;;;1.75;1.65;;;4.50;99.90;;;;;;5093747;28;20204;-81
2022/01/28 05:43:45;;;;;;;1.70;1.55;;;4.50;99.90;;;;;;5093973;28;20203;-81
2022/01/28 05:46:14;;;;;;;2.00;1.90;;;4.40;99.90;;;;;;5093673;28;20224;-81
2022/01/28 05:48:42;;;;;;;2.20;2.03;;;4.40;99.90;;;;;;5093394;28;20207;-81
2022/01/28 05:51:12;;;;;;;2.15;1.95;;;4.40;99.90;;;;;;5093473;28;20283;-81
2022/01/28 05:53:41;;;;;;;2.10;1.90;;;4.40;99.90;;;;;;5093745;28;20216;-81
2022/01/28 05:56:09;;;;;;;3.28;2.33;;;4.50;99.90;;;;;;5093627;28;20228;-81
2022/01/28 05:58:37;;;;;;;2.50;2.10;;;4.50;99.90;;;;;;5092301;28;20210;-81
2022/01/28 06:01:06;;;;;;;2.35;2.22;;;4.50;99.90;;;;;;5093602;28;20210;-80
2022/01/28 06:03:34;;;;;;;2.05;1.95;;;4.50;99.90;;;;;;5093495;28;20227;-81
2022/01/28 06:06:03;;;;;;;1.90;1.80;;;4.50;99.90;;;;;;5093347;28;20250;-81
2022/01/28 06:08:34;;;;;;;1.77;1.65;;;4.50;99.90;;;;;;5093209;28;20227;-81
2022/01/28 06:11:02;;;;;;;2.10;1.52;;;4.50;99.90;;;;;;5093266;28;20215;-81
2022/01/28 06:13:31;;;;;;;1.80;1.70;;;4.40;99.90;;;;;;5093461;28;20224;-81
2022/01/28 06:15:59;;;;;;;1.27;1.27;;;4.50;99.90;;;;;;5093285;28;20234;-81
2022/01/28 06:18:27;;;;;;;4.50;2.53;;;4.40;99.90;;;;;;5093195;28;20208;-81
2022/01/28 06:20:56;;;;;;;1.52;1.42;;;4.40;99.90;;;;;;5092918;28;20214;-81
2022/01/28 06:23:24;;;;;;;1.85;1.63;;;4.40;99.90;;;;;;5093222;28;20358;-81
2022/01/28 06:25:54;;;;;;;1.70;1.60;;;4.30;99.90;;;;;;5093463;28;20227;-80
2022/01/28 06:28:22;;;;;;;1.90;1.75;;;4.30;99.90;;;;;;5092905;28;20208;-81
2022/01/28 06:30:50;;;;;;;2.10;1.92;;;4.30;99.90;;;;;;5092508;28;20235;-80
2022/01/28 06:33:19;;;;;;;2.97;2.20;;;4.30;99.90;;;;;;5091822;28;20227;-80
2022/01/28 06:35:47;;;;;;;1.77;1.67;;;4.30;99.90;;;;;;5092867;28;20239;-80
2022/01/28 06:38:16;;;;;;;1.88;1.73;;;4.20;99.90;;;;;;5093207;28;20265;-80
2022/01/28 06:40:45;;;;;;;2.15;2.00;;;4.20;99.90;;;;;;5092236;28;20211;-81
2022/01/28 06:43:15;;;;;;;2.42;2.22;;;4.20;99.90;;;;;;5092807;28;20234;-81
2022/01/28 06:45:44;;;;;;;1.90;1.80;;;4.10;99.90;;;;;;5092610;28;20230;-81
2022/01/28 06:48:13;;;;;;;1.63;1.52;;;4.10;99.90;;;;;;5092880;28;20291;-81
2022/01/28 06:50:43;;;;;;;1.27;1.20;;;4.10;99.90;;;;;;5092257;28;20216;-81
2022/01/28 06:53:12;;;;;;;1.40;1.30;;;4.20;99.90;;;;;;5092463;28;20208;-81
2022/01/28 06:55:41;;;;;;;0.88;0.88;;;4.10;99.90;;;;;;5092621;28;20247;-81
2022/01/28 06:58:10;;;;;;;1.17;1.15;;;4.20;99.90;;;;;;5092501;28;20216;-81
2022/01/28 07:00:40;;;;;;;1.65;1.17;;;4.20;99.90;;;;;;5092311;28;20200;-81
2022/01/28 07:03:11;;;;;;;0.88;0.80;;;4.20;99.90;;;;;;5092736;28;20269;-81
2022/01/28 07:05:40;;;;;;;2.25;1.00;;;4.20;99.90;;;;;;5092724;28;20316;-81
2022/01/28 07:08:09;;;;;;;0.82;0.82;;;4.20;99.90;;;;;;5092644;28;20208;-81
2022/01/28 07:10:38;;;;;;;1.40;1.30;;;4.20;99.90;;;;;;5091687;28;20209;-81
2022/01/28 07:13:07;;;;;;;2.42;2.22;;;4.20;99.90;;;;;;5092536;28;20207;-81
2022/01/28 07:15:35;;;;;;;1.65;1.55;;;4.20;99.90;;;;;;5092684;28;20228;-81
2022/01/28 07:18:05;;;;;;;1.55;1.45;;;4.20;99.90;;;;;;5092795;28;20212;-81
2022/01/28 07:20:34;;;;;;;1.75;1.65;;;4.20;99.90;;;;;;5091981;28;20211;-81
2022/01/28 07:23:03;;;;;;;1.73;1.63;;;4.20;99.90;;;;;;5092497;28;20204;-81
2022/01/28 07:25:32;;;;;;;1.42;1.33;;;4.20;99.90;;;;;;5092649;28;20273;-80
2022/01/28 07:28:00;;;;;;;1.50;1.40;;;4.20;99.90;;;;;;5092270;28;20204;-80
2022/01/28 07:30:28;;;;;;;1.60;1.50;;;4.20;99.90;;;;;;5091871;28;20215;-81
2022/01/28 07:32:59;;;;;;;1.02;1.02;;;4.20;99.90;;;;;;5091284;28;20259;-80
2022/01/28 07:35:30;;;;;;;1.08;1.02;;;4.20;99.90;;;;;;5091974;28;20232;-80
2022/01/28 07:37:58;;;;;;;1.75;1.20;;;4.30;99.90;;;;;;5092305;28;20210;-80
2022/01/28 07:40:26;;;;;;;0.90;0.90;;;4.40;99.90;;;;;;5091185;28;20204;-81
2022/01/28 07:42:54;;;;;;;0.93;0.93;;;4.40;99.90;;;;;;5092138;28;20283;-80
2022/01/28 07:45:23;;;;;;;1.00;0.90;;;4.50;99.90;;;;;;5092428;28;20227;-80
2022/01/28 07:47:51;;;;;;;0.75;0.75;;;4.50;99.90;;;;;;5091838;28;20272;-80
2022/01/28 07:50:20;;;;;;;0.57;0.57;;;4.60;99.90;;;;;;5091814;28;20208;-80
2022/01/28 07:52:49;;;;;;;0.73;0.68;;;4.60;99.90;;;;;;5092058;28;20211;-80
2022/01/28 07:55:18;;;;;;;1.42;1.33;;;4.60;99.90;;;;;;5091689;28;20256;-81
2022/01/28 07:57:46;;;;;;;0.70;0.70;;;4.70;99.90;;;;;;5092138;28;20208;-81
2022/01/28 08:00:15;;;;;;;0.55;0.55;;;4.80;99.90;;;;;;5091912;28;20213;-81
2022/01/28 08:02:44;;;;;;;0.65;0.65;;;4.90;99.90;;;;;;5092318;28;20213;-81
2022/01/28 08:05:13;;;;;;;0.90;0.90;;;4.90;99.90;;;;;;5091963;28;20224;-80
2022/01/28 08:07:41;;;;;;;0.50;0.50;;;5.00;99.90;;;;;;5092090;28;20234;-80
2022/01/28 08:10:12;;;;;;;0.77;0.77;;;5.10;99.90;;;;;;5091926;28;20196;-80
2022/01/28 08:12:47;;;;;;;0.65;0.65;;;5.20;99.90;;;;;;5092021;28;20205;-80
2022/01/28 08:15:17;;;;;;;1.13;0.90;;;5.30;99.90;;;;;;5091968;28;20235;-81
2022/01/28 08:17:46;;;;;;;0.50;0.50;;;5.40;99.90;;;;;;5091925;28;20204;-81
2022/01/28 08:20:14;;;;;;;0.60;0.60;;;5.50;99.90;;;;;;5091531;28;20251;-81
2022/01/28 08:22:47;;;;;;;1.00;0.80;;;5.50;99.90;;;;;;5094385;28;20292;-81
2022/01/28 08:25:17;;;;;;;0.70;0.70;;;5.50;99.90;;;;;;5095620;28;20307;-80
2022/01/28 08:27:47;;;;;;;0.40;0.40;;;5.60;99.90;;;;;;5095403;28;20208;-80
2022/01/28 08:30:17;;;;;;;0.80;0.80;;;5.60;99.90;;;;;;5094749;28;20287;-81
2022/01/28 08:32:46;;;;;;;0.50;0.50;;;5.70;99.90;;;;;;5095411;28;20208;-80
2022/01/28 08:35:15;;;;;;;5.78;0.63;;;5.70;99.90;;;;;;5095250;28;20232;-81
2022/01/28 08:37:43;;;;;;;0.60;0.60;;;5.70;99.90;;;;;;5095301;28;20379;-81
2022/01/28 08:40:13;;;;;;;0.63;0.63;;;5.70;99.90;;;;;;5094416;28;20210;-80
2022/01/28 08:42:43;;;;;;;0.40;0.40;;;5.80;99.90;;;;;;5095201;28;20204;-80
2022/01/28 08:45:12;;;;;;;1.15;0.90;;;5.80;99.90;;;;;;5094907;28;20315;-80
2022/01/28 08:47:40;;;;;;;0.82;0.82;;;5.80;99.90;;;;;;5095184;28;20296;-81
2022/01/28 08:50:09;;;;;;;0.65;0.57;;;5.80;99.90;;;;;;5094548;28;20283;-81
2022/01/28 08:52:38;;;;;;;0.68;0.68;;;5.80;99.90;;;;;;5094893;28;20207;-81
2022/01/28 08:55:08;;;;;;;1.08;1.08;;;5.80;99.90;;;;;;5094816;28;20309;-81
2022/01/28 08:57:36;;;;;;;0.90;0.90;;;5.80;99.90;;;;;;5094782;28;20212;-81
2022/01/28 09:00:07;;;;;;;1.13;0.70;;;5.80;99.90;;;;;;5094363;28;20292;-81
2022/01/28 09:02:35;;;;;;;1.08;1.08;;;5.80;99.90;;;;;;5094707;28;20231;-81
2022/01/28 09:05:04;;;;;;;1.45;1.23;;;5.80;99.90;;;;;;5094643;28;20259;-80
2022/01/28 09:07:32;;;;;;;2.55;1.58;;;5.80;99.90;;;;;;5094455;28;20224;-81
2022/01/28 09:10:11;;;;;;;1.05;1.02;;;5.90;99.90;;;;;;5094017;28;20213;-80
2022/01/28 09:12:48;;;;;;;1.38;1.27;;;5.80;99.90;;;;;;5094478;28;20225;-81
2022/01/28 09:15:18;;;;;;;0.82;0.82;;;5.70;99.90;;;;;;5094450;28;20234;-81
2022/01/28 09:17:59;;;;;;;1.35;1.10;;;5.60;99.90;;;;;;5094739;28;20212;-81
2022/01/28 09:20:29;;;;;;;1.38;1.17;;;5.60;99.90;;;;;;5093560;28;20204;-81
2022/01/28 09:22:58;;;;;;;0.80;0.80;;;5.60;99.90;;;;;;5094315;28;20210;-81
2022/01/28 09:25:27;;;;;;;0.90;0.90;;;5.50;99.90;;;;;;5094315;28;20216;-81
2022/01/28 09:27:55;;;;;;;1.48;1.38;;;5.50;99.90;;;;;;5094317;28;20220;-80
2022/01/28 09:30:25;;;;;;;1.23;1.13;;;5.50;99.90;;;;;;5093780;28;20212;-82
2022/01/28 09:32:56;;;;;;;1.23;1.13;;;5.50;99.90;;;;;;5093000;28;20207;-81
2022/01/28 09:35:24;;;;;;;2.05;1.00;;;5.60;99.90;;;;;;5093747;28;20232;-81
2022/01/28 09:37:53;;;;;;;0.75;0.75;;;5.70;99.90;;;;;;5094114;28;20287;-81
2022/01/28 09:40:22;;;;;;;0.50;0.50;;;5.70;99.90;;;;;;5093315;28;20298;-81
2022/01/28 09:42:52;;;;;;;0.80;0.80;;;5.90;99.90;;;;;;5094089;28;20212;-81
2022/01/28 09:45:23;;;;;;;0.70;0.70;;;6.10;99.90;;;;;;5094028;28;20304;-81
2022/01/28 09:47:56;;;;;;;0.80;0.80;;;6.20;99.90;;;;;;5093986;28;20214;-82
2022/01/28 09:50:26;;;;;;;1.30;0.90;;;6.20;99.90;;;;;;5093546;28;20284;-82
2022/01/28 09:52:56;;;;;;;0.75;0.75;;;6.20;99.90;;;;;;5093606;28;20215;-82
2022/01/28 09:55:26;;;;;;;4.18;1.13;;;6.30;99.90;;;;;;5093797;28;20220;-81
2022/01/28 09:57:59;;;;;;;1.02;0.95;;;6.30;99.90;;;;;;5093580;28;20215;-81
2022/01/28 10:00:28;;;;;;;1.27;1.10;;;6.40;99.90;;;;;;5092957;28;20265;-82
2022/01/28 10:03:01;;;;;;;0.80;0.80;;;6.60;99.90;;;;;;5093432;28;20208;-80
2022/01/28 10:05:32;;;;;;;0.65;0.65;;;6.80;99.90;;;;;;5093311;28;20230;-80
2022/01/28 10:08:07;;;;;;;1.10;0.95;;;6.80;99.90;;;;;;5093691;28;20200;-80
2022/01/28 10:10:43;;;;;;;1.27;0.88;;;6.60;99.90;;;;;;5092876;28;20206;-80
2022/01/28 10:13:14;;;;;;;0.77;0.65;;;6.80;99.90;;;;;;5093451;28;20212;-80
2022/01/28 10:16:10;;;;;;;0.57;0.57;;;7.00;99.90;;;;;;5093157;28;20320;-80
2022/01/28 10:18:49;;;;;;;1.10;1.05;;;7.10;99.90;;;;;;5092661;28;20213;-81
2022/01/28 10:21:27;;;;;;;3.00;0.90;;;7.30;99.90;;;;;;5093233;28;20208;-81
2022/01/28 10:24:08;;;;;;;0.85;0.77;;;7.30;99.90;;;;;;5093728;28;20215;-81
2022/01/28 10:26:40;;;;;;;2.30;0.70;;;7.30;99.90;;;;;;5093126;28;20220;-80
2022/01/28 10:29:11;;;;;;;0.65;0.65;;;7.40;99.90;;;;;;5092557;28;20209;-81
2022/01/28 10:31:52;;;;;;;0.70;0.70;;;7.50;99.90;;;;;;5092742;28;20284;-81
2022/01/28 10:34:24;;;;;;;0.50;0.50;;;7.40;99.90;;;;;;5093146;28;20212;-80
2022/01/28 10:37:08;;;;;;;0.65;0.65;;;7.20;99.90;;;;;;5093058;28;20286;-80
2022/01/28 10:39:41;;;;;;;1.73;1.00;;;6.90;99.90;;;;;;5092241;28;20196;-81
2022/01/28 10:42:14;;;;;;;1.13;0.93;;;6.70;99.90;;;;;;5093066;28;20205;-80
2022/01/28 10:44:54;;;;;;;0.45;0.45;;;6.60;99.90;;;;;;5092352;28;20211;-81
2022/01/28 10:47:34;;;;;;;0.88;0.85;;;6.50;99.90;;;;;;5092873;28;20283;-80
2022/01/28 10:50:20;;;;;;;0.68;0.68;;;6.30;99.90;;;;;;5092223;28;20218;-80
2022/01/28 10:52:58;;;;;;;1.55;1.23;;;6.30;99.90;;;;;;5092846;28;20208;-81
2022/01/28 10:55:29;;;;;;;0.57;0.45;;;6.30;99.90;;;;;;5092531;28;20274;-80
2022/01/28 10:57:59;;;;;;;0.60;0.60;;;6.30;99.90;;;;;;5092684;28;20211;-80
2022/01/28 11:00:29;;;;;;;0.77;0.77;;;6.30;99.90;;;;;;5092081;28;20204;-80
2022/01/28 11:02:59;;;;;;;3.00;1.00;;;6.20;99.90;;;;;;5092689;28;20261;-80
2022/01/28 11:05:32;;;;;;;0.50;0.50;;;6.00;99.90;;;;;;5092445;28;20285;-80
2022/01/28 11:08:02;;;;;;;0.55;0.55;;;6.00;99.90;;;;;;5092714;28;20200;-80
2022/01/28 11:10:30;;;;;;;0.70;0.70;;;6.00;99.90;;;;;;5092006;28;20204;-81
2022/01/28 11:13:00;;;;;;;1.15;0.90;;;6.20;99.90;;;;;;5092631;28;20208;-80
2022/01/28 11:15:30;;;;;;;0.77;0.63;;;6.80;99.90;;;;;;5092529;28;20234;-81
2022/01/28 11:18:00;;;;;;;0.57;0.57;;;7.70;99.90;;;;;;5092241;28;20212;-80
2022/01/28 11:20:36;;;;;;;0.70;0.70;;;7.90;99.90;;;;;;5092068;28;20204;-81
2022/01/28 11:23:15;;;;;;;1.75;0.68;;;8.00;99.90;;;;;;5092640;28;20211;-81
2022/01/28 11:26:13;;;;;;;0.77;0.77;;;8.30;99.90;;;;;;5092543;28;20228;-80
2022/01/28 11:28:44;;;;;;;0.85;0.60;;;8.50;99.90;;;;;;5092625;28;20212;-81
2022/01/28 11:31:14;;;;;;;0.60;0.60;;;8.50;99.90;;;;;;5092468;28;20204;-80
2022/01/28 11:33:48;;;;;;;0.90;0.80;;;8.60;99.80;;;;;;5092151;28;20215;-80
2022/01/28 11:36:32;;;;;;;1.13;0.93;;;8.70;99.90;;;;;;5092469;28;20307;-81
2022/01/28 11:39:08;;;;;;;2.47;0.90;;;9.10;99.20;;;;;;5092108;28;20279;-81
2022/01/28 11:41:37;;;;;;;1.00;1.00;;;9.20;97.80;;;;;;5092133;28;20216;-80
2022/01/28 11:44:05;;;;;;;0.47;0.47;;;8.90;97.30;;;;;;5092197;28;20220;-80
2022/01/28 11:46:38;;;;;;;1.25;0.90;;;8.60;96.90;;;;;;5092115;28;20252;-80
2022/01/28 11:49:24;;;;;;;1.67;1.02;;;8.60;97.10;;;;;;5091856;28;20284;-80
2022/01/28 11:51:54;;;;;;;0.50;0.50;;;8.40;96.90;;;;;;5092336;28;20212;-80
2022/01/28 11:54:38;;;;;;;0.80;0.80;;;8.20;97.70;;;;;;5092370;28;20205;-80
2022/01/28 11:57:21;;;;;;;1.02;1.02;;;8.30;97.00;;;;;;5093411;28;20227;-81
2022/01/28 11:59:50;;;;;;;0.43;0.43;;;8.50;95.40;;;;;;5095653;28;20286;-80
2022/01/28 12:02:21;;;;;;;1.88;1.17;;;8.50;94.80;;;;;;5095982;28;20208;-80
2022/01/28 12:04:51;;;;;;;2.63;0.88;;;8.50;94.60;;;;;;5096263;28;20224;-80
2022/01/28 12:07:24;;;;;;;0.95;0.68;;;8.90;94.10;;;;;;5096290;28;20279;-81
2022/01/28 12:09:55;;;;;;;1.35;1.10;;;8.70;93.70;;;;;;5095457;28;20275;-81
2022/01/28 12:12:55;;;;;;;1.00;0.85;;;8.20;93.70;;;;;;5095610;28;20228;-81
2022/01/28 12:15:25;;;;;;;0.95;0.88;;;7.80;94.50;;;;;;5095775;28;20278;-80
2022/01/28 12:18:06;;;;;;;1.10;1.00;;;7.50;95.10;;;;;;5095831;28;20221;-80
2022/01/28 12:20:58;;;;;;;2.30;1.02;;;7.30;95.40;;;;;;5095512;28;20208;-80
2022/01/28 12:23:30;;;;;;;0.77;0.73;;;7.30;96.40;;;;;;5095517;28;20212;-80
2022/01/28 12:26:00;;;;;;;0.77;0.77;;;7.20;96.20;;;;;;5095529;28;20285;-81
2022/01/28 12:28:57;;;;;;;2.63;1.05;;;7.10;96.70;;;;;;5095375;28;20208;-80
2022/01/28 12:31:29;;;;;;;1.45;0.80;;;6.90;97.80;;;;;;5092598;28;20291;-80
2022/01/28 12:33:59;;;;;;;0.70;0.70;;;6.80;98.60;;;;;;5095449;28;20219;-81
2022/01/28 12:36:30;;;;;;;0.65;0.65;;;6.70;99.30;;;;;;5095135;28;20313;-80
2022/01/28 12:39:19;;;;;;;1.42;0.80;;;6.60;99.80;;;;;;5094789;28;20216;-80
2022/01/28 12:41:56;;;;;;;1.75;0.80;;;6.60;99.90;;;;;;5095236;28;20243;-80
2022/01/28 12:44:25;;;;;;;2.08;1.00;;;6.60;99.90;;;;;;5095061;28;20214;-80
2022/01/28 12:47:00;;;;;;;2.63;0.80;;;6.60;99.90;;;;;;5095053;28;20285;-80
2022/01/28 12:49:31;;;;;;;1.42;1.00;;;6.60;99.90;;;;;;5095027;28;20295;-80
2022/01/28 12:52:01;;;;;;;0.77;0.77;;;6.60;99.90;;;;;;5094960;28;20295;-80
2022/01/28 12:54:37;;;;;;;0.45;0.45;;;6.60;99.90;;;;;;5094832;28;20283;-80
2022/01/28 12:57:08;;;;;;;0.93;0.70;;;6.50;99.90;;;;;;5094809;28;20224;-80
2022/01/28 12:59:37;;;;;;;0.40;0.40;;;6.40;99.90;;;;;;5094020;28;20204;-80
2022/01/28 13:02:06;;;;;;;0.82;0.60;;;6.40;99.90;;;;;;5094845;28;20203;-80
2022/01/28 13:04:56;;;;;;;0.75;0.75;;;6.40;99.90;;;;;;5094468;28;20220;-80
2022/01/28 13:10:12;;;;;;;1.48;0.90;;;6.50;99.90;;;;;;5094269;28;20249;-82
2022/01/28 13:12:40;;;;;;;6.82;3.20;;;6.50;99.90;;;;;;5094514;28;20209;-80
2022/01/28 13:15:11;;;;;;;2.78;0.93;;;6.60;99.90;;;;;;5094601;28;20220;-82
2022/01/28 13:17:41;;;;;;;1.80;1.20;;;6.50;99.90;;;;;;5094222;28;20224;-81
2022/01/28 13:20:10;;;;;;;1.35;1.02;;;6.50;99.90;;;;;;5093830;28;20208;-79
2022/01/28 13:22:40;;;;;;;0.90;0.90;;;6.50;99.90;;;;;;5093863;28;20208;-81
2022/01/28 13:25:22;;;;;;;2.15;1.23;;;6.50;99.40;;;;;;5094003;28;20256;-81
2022/01/28 13:27:56;;;;;;;0.90;0.68;;;6.50;99.80;;;;;;5094752;28;20291;-82
2022/01/28 13:30:25;;;;;;;1.13;1.00;;;6.50;99.70;;;;;;5093532;28;20205;-82
2022/01/28 13:33:01;;;;;;;1.08;1.00;;;6.50;99.70;;;;;;5093429;28;20196;-79
2022/01/28 13:35:32;;;;;;;1.35;1.25;;;6.60;99.80;;;;;;5094008;28;20301;-80
2022/01/28 13:38:06;;;;;;;0.70;0.63;;;6.70;99.90;;;;;;5094153;28;20225;-79
2022/01/28 13:40:39;;;;;;;2.20;1.20;;;6.70;99.60;;;;;;5093719;28;20224;-79
2022/01/28 13:43:10;;;;;;;1.45;1.00;;;6.60;99.90;;;;;;5094222;28;20219;-79
2022/01/28 13:45:41;;;;;;;2.05;0.90;;;6.60;99.90;;;;;;5093679;28;20305;-82
2022/01/28 13:48:13;;;;;;;2.40;0.82;;;6.70;99.90;;;;;;5093641;28;20228;-82
2022/01/28 13:50:43;;;;;;;2.45;1.20;;;6.80;99.40;;;;;;5093637;28;20291;-82
2022/01/28 13:53:34;;;;;;;3.78;1.38;;;6.70;99.80;;;;;;5094031;28;20272;-80
2022/01/28 13:56:10;;;;;;;1.23;0.80;;;6.60;99.90;;;;;;5093898;28;20228;-79
2022/01/28 13:58:48;;;;;;;1.80;1.20;;;6.60;99.30;;;;;;5093066;28;20224;-80
2022/01/28 14:01:17;;;;;;;0.70;0.70;;;6.60;99.90;;;;;;5093522;28;20208;-79
2022/01/28 14:03:54;;;;;;;0.70;0.70;;;6.50;99.40;;;;;;5093619;28;20204;-81
2022/01/28 14:06:25;;;;;;;5.80;1.10;;;6.30;99.90;;;;;;5093449;28;20228;-82
2022/01/28 14:09:05;;;;;;;0.80;0.80;;;6.30;99.90;;;;;;5093238;28;20234;-80
2022/01/28 14:11:39;;;;;;;0.80;0.52;;;6.20;99.90;;;;;;5093373;28;20208;-82
2022/01/28 14:14:18;;;;;;;0.60;0.60;;;6.20;99.90;;;;;;5093370;28;20230;-79
2022/01/28 14:16:48;;;;;;;1.27;1.00;;;6.20;99.90;;;;;;5093094;28;20234;-82